sensor_id;sensor_type;location;lat;lon;timestamp;pressure;altitude;pressure_sealevel;temperature;humidity
17635;BME280;8936;49.010;12.120;2023-03-14T00:00:07;96311.19;;;11.31;100.00
17635;BME280;8936;49.010;12.120;2023-03-14T00:02:35;96313.38;;;11.29;100.00
17635;BME280;8936;49.010;12.120;2023-03-14T00:05:01;96307.91;;;11.34;100.00
17635;BME280;8936;49.010;12.120;2023-03-14T00:07:31;96310.75;;;11.37;100.00
17635;BME280;8936;49.010;12.120;2023-03-14T00:10:00;96293.31;;;11.40;100.00
17635;BME280;8936;49.010;12.120;2023-03-14T00:12:28;96293.66;;;11.47;100.00
17635;BME280;8936;49.010;12.120;2023-03-14T00:14:54;96293.16;;;11.45;100.00
17635;BME280;8936;49.010;12.120;2023-03-14T00:17:21;96282.03;;;11.52;100.00
17635;BME280;8936;49.010;12.120;2023-03-14T00:19:48;96269.34;;;11.57;100.00
17635;BME280;8936;49.010;12.120;2023-03-14T00:22:17;96280.47;;;11.51;100.00
17635;BME280;8936;49.010;12.120;2023-03-14T00:24:43;96267.91;;;11.51;100.00
17635;BME280;8936;49.010;12.120;2023-03-14T00:27:09;96250.41;;;11.45;100.00
17635;BME280;8936;49.010;12.120;2023-03-14T00:29:37;96245.47;;;11.30;100.00
17635;BME280;8936;49.010;12.120;2023-03-14T00:32:03;96259.44;;;11.27;100.00
17635;BME280;8936;49.010;12.120;2023-03-14T00:34:30;96305.84;;;11.31;100.00
17635;BME280;8936;49.010;12.120;2023-03-14T00:36:57;96309.16;;;11.36;100.00
17635;BME280;8936;49.010;12.120;2023-03-14T00:39:23;96293.94;;;11.37;100.00
17635;BME280;8936;49.010;12.120;2023-03-14T00:41:49;96310.75;;;11.37;100.00
17635;BME280;8936;49.010;12.120;2023-03-14T00:44:16;96336.53;;;11.42;100.00
17635;BME280;8936;49.010;12.120;2023-03-14T00:46:43;96339.09;;;11.47;100.00
17635;BME280;8936;49.010;12.120;2023-03-14T00:49:10;96343.03;;;11.50;100.00
17635;BME280;8936;49.010;12.120;2023-03-14T00:51:36;96340.38;;;11.50;100.00
17635;BME280;8936;49.010;12.120;2023-03-14T00:54:02;96333.16;;;11.50;100.00
17635;BME280;8936;49.010;12.120;2023-03-14T00:56:29;96336.91;;;11.49;100.00
17635;BME280;8936;49.010;12.120;2023-03-14T00:58:56;96336.88;;;11.41;100.00
17635;BME280;8936;49.010;12.120;2023-03-14T01:01:23;96346.81;;;11.49;100.00
17635;BME280;8936;49.010;12.120;2023-03-14T01:03:52;96349.81;;;11.47;100.00
17635;BME280;8936;49.010;12.120;2023-03-14T01:06:19;96366.91;;;11.46;100.00
17635;BME280;8936;49.010;12.120;2023-03-14T01:08:46;96351.69;;;11.47;100.00
17635;BME280;8936;49.010;12.120;2023-03-14T01:11:13;96351.50;;;11.43;100.00
17635;BME280;8936;49.010;12.120;2023-03-14T01:13:40;96334.16;;;11.32;100.00
17635;BME280;8936;49.010;12.120;2023-03-14T01:16:07;96332.19;;;11.24;100.00
17635;BME280;8936;49.010;12.120;2023-03-14T01:18:34;96348.78;;;11.34;100.00
17635;BME280;8936;49.010;12.120;2023-03-14T01:21:02;96338.28;;;11.38;100.00
17635;BME280;8936;49.010;12.120;2023-03-14T01:23:29;96327.69;;;11.33;100.00
17635;BME280;8936;49.010;12.120;2023-03-14T01:25:55;96316.72;;;11.34;100.00
17635;BME280;8936;49.010;12.120;2023-03-14T01:28:21;96313.72;;;11.36;100.00
17635;BME280;8936;49.010;12.120;2023-03-14T01:30:48;96329.59;;;11.32;100.00
17635;BME280;8936;49.010;12.120;2023-03-14T01:33:14;96308.38;;;11.36;100.00
17635;BME280;8936;49.010;12.120;2023-03-14T01:35:40;96320.22;;;11.44;100.00
17635;BME280;8936;49.010;12.120;2023-03-14T01:38:08;96308.47;;;11.53;100.00
17635;BME280;8936;49.010;12.120;2023-03-14T01:40:40;96321.47;;;11.46;100.00
17635;BME280;8936;49.010;12.120;2023-03-14T01:43:13;96328.88;;;11.49;100.00
17635;BME280;8936;49.010;12.120;2023-03-14T01:46:06;96337.69;;;11.50;100.00
17635;BME280;8936;49.010;12.120;2023-03-14T01:48:39;96332.75;;;11.34;100.00
17635;BME280;8936;49.010;12.120;2023-03-14T01:51:08;96330.25;;;11.38;100.00
17635;BME280;8936;49.010;12.120;2023-03-14T01:53:36;96329.47;;;11.37;100.00
17635;BME280;8936;49.010;12.120;2023-03-14T01:56:05;96320.91;;;11.27;100.00
17635;BME280;8936;49.010;12.120;2023-03-14T01:58:31;96325.44;;;11.26;100.00
17635;BME280;8936;49.010;12.120;2023-03-14T02:00:59;96313.25;;;11.34;100.00
17635;BME280;8936;49.010;12.120;2023-03-14T02:03:27;96318.22;;;11.27;100.00
17635;BME280;8936;49.010;12.120;2023-03-14T02:05:56;96310.63;;;11.20;100.00
17635;BME280;8936;49.010;12.120;2023-03-14T02:08:26;96305.38;;;11.29;100.00
17635;BME280;8936;49.010;12.120;2023-03-14T02:10:54;96290.41;;;11.28;100.00
17635;BME280;8936;49.010;12.120;2023-03-14T02:13:21;96283.50;;;11.27;100.00
17635;BME280;8936;49.010;12.120;2023-03-14T02:15:48;96275.19;;;11.28;100.00
17635;BME280;8936;49.010;12.120;2023-03-14T02:18:15;96262.72;;;11.24;100.00
17635;BME280;8936;49.010;12.120;2023-03-14T02:20:44;96261.16;;;11.23;100.00
17635;BME280;8936;49.010;12.120;2023-03-14T02:23:12;96256.88;;;11.13;100.00
17635;BME280;8936;49.010;12.120;2023-03-14T02:25:41;96238.63;;;11.15;100.00
17635;BME280;8936;49.010;12.120;2023-03-14T02:28:12;96221.31;;;11.04;100.00
17635;BME280;8936;49.010;12.120;2023-03-14T02:30:38;96221.31;;;11.04;100.00
17635;BME280;8936;49.010;12.120;2023-03-14T02:33:05;96220.53;;;11.04;100.00
17635;BME280;8936;49.010;12.120;2023-03-14T02:35:34;96203.66;;;10.95;100.00
17635;BME280;8936;49.010;12.120;2023-03-14T02:38:03;96217.63;;;10.92;100.00
17635;BME280;8936;49.010;12.120;2023-03-14T02:40:33;96217.00;;;10.95;100.00
17635;BME280;8936;49.010;12.120;2023-03-14T02:42:59;96201.91;;;10.90;100.00
17635;BME280;8936;49.010;12.120;2023-03-14T02:45:32;96192.38;;;10.98;100.00
17635;BME280;8936;49.010;12.120;2023-03-14T02:48:00;96197.56;;;11.03;100.00
17635;BME280;8936;49.010;12.120;2023-03-14T02:50:29;96180.09;;;10.97;100.00
17635;BME280;8936;49.010;12.120;2023-03-14T02:52:58;96173.66;;;10.98;100.00
17635;BME280;8936;49.010;12.120;2023-03-14T02:55:24;96181.97;;;10.96;100.00
17635;BME280;8936;49.010;12.120;2023-03-14T02:57:52;96169.56;;;10.92;100.00
17635;BME280;8936;49.010;12.120;2023-03-14T03:00:18;96176.97;;;10.95;100.00
17635;BME280;8936;49.010;12.120;2023-03-14T03:02:46;96175.06;;;10.95;100.00
17635;BME280;8936;49.010;12.120;2023-03-14T03:05:13;96172.69;;;10.94;100.00
17635;BME280;8936;49.010;12.120;2023-03-14T03:07:39;96214.03;;;10.96;100.00
17635;BME280;8936;49.010;12.120;2023-03-14T03:10:06;96230.38;;;10.95;100.00
17635;BME280;8936;49.010;12.120;2023-03-14T03:12:32;96243.41;;;10.96;100.00
17635;BME280;8936;49.010;12.120;2023-03-14T03:14:58;96244.19;;;10.97;100.00
17635;BME280;8936;49.010;12.120;2023-03-14T03:17:25;96245.03;;;11.06;100.00
17635;BME280;8936;49.010;12.120;2023-03-14T03:19:52;96249.16;;;11.12;100.00
17635;BME280;8936;49.010;12.120;2023-03-14T03:22:19;96247.44;;;11.16;100.00
17635;BME280;8936;49.010;12.120;2023-03-14T03:24:45;96262.50;;;11.12;100.00
17635;BME280;8936;49.010;12.120;2023-03-14T03:27:11;96264.44;;;11.20;100.00
17635;BME280;8936;49.010;12.120;2023-03-14T03:29:38;96272.28;;;11.16;100.00
17635;BME280;8936;49.010;12.120;2023-03-14T03:32:04;96263.94;;;11.18;100.00
17635;BME280;8936;49.010;12.120;2023-03-14T03:34:30;96274.53;;;11.23;100.00
17635;BME280;8936;49.010;12.120;2023-03-14T03:36:58;96268.22;;;11.19;100.00
17635;BME280;8936;49.010;12.120;2023-03-14T03:39:24;96268.34;;;11.14;100.00
17635;BME280;8936;49.010;12.120;2023-03-14T03:41:51;96270.56;;;11.20;100.00
17635;BME280;8936;49.010;12.120;2023-03-14T03:44:17;96264.38;;;11.11;100.00
17635;BME280;8936;49.010;12.120;2023-03-14T03:46:44;96254.00;;;11.10;100.00
17635;BME280;8936;49.010;12.120;2023-03-14T03:49:10;96258.28;;;11.11;100.00
17635;BME280;8936;49.010;12.120;2023-03-14T03:51:36;96246.66;;;11.15;100.00
17635;BME280;8936;49.010;12.120;2023-03-14T03:54:04;96238.59;;;11.07;100.00
17635;BME280;8936;49.010;12.120;2023-03-14T03:56:30;96235.19;;;11.15;100.00
17635;BME280;8936;49.010;12.120;2023-03-14T03:58:57;96235.94;;;11.07;100.00
17635;BME280;8936;49.010;12.120;2023-03-14T04:01:23;96224.16;;;11.08;100.00
17635;BME280;8936;49.010;12.120;2023-03-14T04:03:49;96223.97;;;11.04;100.00
17635;BME280;8936;49.010;12.120;2023-03-14T04:06:16;96225.06;;;11.03;100.00
17635;BME280;8936;49.010;12.120;2023-03-14T04:08:42;96231.66;;;11.06;100.00
17635;BME280;8936;49.010;12.120;2023-03-14T04:11:10;96231.06;;;11.09;100.00
17635;BME280;8936;49.010;12.120;2023-03-14T04:13:37;96229.63;;;11.03;100.00
17635;BME280;8936;49.010;12.120;2023-03-14T04:16:03;96215.03;;;11.09;100.00
17635;BME280;8936;49.010;12.120;2023-03-14T04:18:30;96205.47;;;11.08;100.00
17635;BME280;8936;49.010;12.120;2023-03-14T04:20:56;96204.66;;;11.07;100.00
17635;BME280;8936;49.010;12.120;2023-03-14T04:23:23;96207.16;;;11.04;100.00
17635;BME280;8936;49.010;12.120;2023-03-14T04:25:50;96205.47;;;11.08;100.00
17635;BME280;8936;49.010;12.120;2023-03-14T04:28:18;96193.38;;;11.10;100.00
17635;BME280;8936;49.010;12.120;2023-03-14T04:30:44;96194.78;;;11.08;100.00
17635;BME280;8936;49.010;12.120;2023-03-14T04:33:10;96186.00;;;11.16;100.00
17635;BME280;8936;49.010;12.120;2023-03-14T04:35:39;96188.03;;;11.10;100.00
17635;BME280;8936;49.010;12.120;2023-03-14T04:38:05;96179.19;;;11.01;100.00
17635;BME280;8936;49.010;12.120;2023-03-14T04:40:32;96175.63;;;10.83;100.00
17635;BME280;8936;49.010;12.120;2023-03-14T04:42:58;96169.03;;;10.81;100.00
17635;BME280;8936;49.010;12.120;2023-03-14T04:45:26;96177.16;;;10.76;100.00
17635;BME280;8936;49.010;12.120;2023-03-14T04:47:52;96181.41;;;10.77;100.00
17635;BME280;8936;49.010;12.120;2023-03-14T04:50:19;96182.19;;;10.77;100.00
17635;BME280;8936;49.010;12.120;2023-03-14T04:52:45;96170.06;;;10.71;100.00
17635;BME280;8936;49.010;12.120;2023-03-14T04:55:11;96164.88;;;10.66;100.00
17635;BME280;8936;49.010;12.120;2023-03-14T04:57:38;96166.56;;;10.62;100.00
17635;BME280;8936;49.010;12.120;2023-03-14T05:00:04;96177.97;;;10.76;100.00
17635;BME280;8936;49.010;12.120;2023-03-14T05:02:33;96184.13;;;10.86;100.00
17635;BME280;8936;49.010;12.120;2023-03-14T05:05:00;96173.63;;;10.89;100.00
17635;BME280;8936;49.010;12.120;2023-03-14T05:07:26;96167.69;;;10.92;100.00
17635;BME280;8936;49.010;12.120;2023-03-14T05:09:53;96173.44;;;10.86;100.00
17635;BME280;8936;49.010;12.120;2023-03-14T05:12:19;96178.38;;;10.92;100.00
17635;BME280;8936;49.010;12.120;2023-03-14T05:14:46;96176.81;;;11.00;100.00
17635;BME280;8936;49.010;12.120;2023-03-14T05:17:12;96174.13;;;11.00;100.00
17635;BME280;8936;49.010;12.120;2023-03-14T05:19:40;96159.19;;;10.99;100.00
17635;BME280;8936;49.010;12.120;2023-03-14T05:22:07;96171.72;;;10.90;100.00
17635;BME280;8936;49.010;12.120;2023-03-14T05:24:33;96167.19;;;10.90;100.00
17635;BME280;8936;49.010;12.120;2023-03-14T05:26:59;96168.63;;;10.96;100.00
17635;BME280;8936;49.010;12.120;2023-03-14T05:29:26;96172.44;;;11.04;100.00
17635;BME280;8936;49.010;12.120;2023-03-14T05:31:52;96172.63;;;11.07;100.00
17635;BME280;8936;49.010;12.120;2023-03-14T05:34:18;96169.41;;;10.97;100.00
17635;BME280;8936;49.010;12.120;2023-03-14T05:36:46;96164.31;;;10.87;100.00
17635;BME280;8936;49.010;12.120;2023-03-14T05:39:12;96167.19;;;10.90;100.00
17635;BME280;8936;49.010;12.120;2023-03-14T05:41:39;96153.09;;;10.98;100.00
17635;BME280;8936;49.010;12.120;2023-03-14T05:44:05;96149.47;;;10.94;100.00
17635;BME280;8936;49.010;12.120;2023-03-14T05:46:32;96133.72;;;10.93;100.00
17635;BME280;8936;49.010;12.120;2023-03-14T05:48:58;96147.13;;;11.01;100.00
17635;BME280;8936;49.010;12.120;2023-03-14T05:51:25;96140.69;;;11.02;100.00
17635;BME280;8936;49.010;12.120;2023-03-14T05:53:53;96160.50;;;11.01;100.00
17635;BME280;8936;49.010;12.120;2023-03-14T05:56:19;96155.59;;;10.95;100.00
17635;BME280;8936;49.010;12.120;2023-03-14T05:58:45;96156.41;;;11.04;100.00
17635;BME280;8936;49.010;12.120;2023-03-14T06:01:12;96155.19;;;11.10;100.00
17635;BME280;8936;49.010;12.120;2023-03-14T06:03:38;96153.75;;;11.04;100.00
17635;BME280;8936;49.010;12.120;2023-03-14T06:06:05;96162.81;;;10.94;100.00
17635;BME280;8936;49.010;12.120;2023-03-14T06:08:31;96159.53;;;10.97;100.00
17635;BME280;8936;49.010;12.120;2023-03-14T06:11:02;96158.44;;;10.98;100.00
17635;BME280;8936;49.010;12.120;2023-03-14T06:13:28;96147.75;;;10.98;100.00
17635;BME280;8936;49.010;12.120;2023-03-14T06:15:55;96151.38;;;11.02;100.00
17635;BME280;8936;49.010;12.120;2023-03-14T06:18:21;96150.09;;;11.00;100.00
17635;BME280;8936;49.010;12.120;2023-03-14T06:20:47;96142.50;;;10.84;100.00
17635;BME280;8936;49.010;12.120;2023-03-14T06:23:14;96152.38;;;10.84;100.00
17635;BME280;8936;49.010;12.120;2023-03-14T06:25:40;96159.59;;;10.83;100.00
17635;BME280;8936;49.010;12.120;2023-03-14T06:28:07;96157.69;;;10.75;100.00
17635;BME280;8936;49.010;12.120;2023-03-14T06:30:34;96150.66;;;10.79;100.00
17635;BME280;8936;49.010;12.120;2023-03-14T06:33:00;96145.56;;;10.69;100.00
17635;BME280;8936;49.010;12.120;2023-03-14T06:35:26;96147.16;;;10.70;100.00
17635;BME280;8936;49.010;12.120;2023-03-14T06:37:53;96150.91;;;10.69;100.00
17635;BME280;8936;49.010;12.120;2023-03-14T06:40:19;96155.00;;;10.75;100.00
17635;BME280;8936;49.010;12.120;2023-03-14T06:42:46;96145.94;;;10.76;100.00
17635;BME280;8936;49.010;12.120;2023-03-14T06:45:14;96140.88;;;10.75;100.00
17635;BME280;8936;49.010;12.120;2023-03-14T06:47:40;96143.72;;;10.78;100.00
17635;BME280;8936;49.010;12.120;2023-03-14T06:50:08;96135.91;;;10.82;100.00
17635;BME280;8936;49.010;12.120;2023-03-14T06:52:35;96135.25;;;10.76;100.00
17635;BME280;8936;49.010;12.120;2023-03-14T06:55:01;96144.34;;;10.75;100.00
17635;BME280;8936;49.010;12.120;2023-03-14T06:57:27;96143.19;;;10.68;100.00
17635;BME280;8936;49.010;12.120;2023-03-14T06:59:54;96136.47;;;10.70;100.00
17635;BME280;8936;49.010;12.120;2023-03-14T07:02:22;96143.50;;;10.66;100.00
17635;BME280;8936;49.010;12.120;2023-03-14T07:04:48;96140.69;;;10.71;100.00
17635;BME280;8936;49.010;12.120;2023-03-14T07:07:14;96130.78;;;10.63;100.00
17635;BME280;8936;49.010;12.120;2023-03-14T07:09:41;96128.94;;;10.72;100.00
17635;BME280;8936;49.010;12.120;2023-03-14T07:12:07;96132.22;;;10.69;100.00
17635;BME280;8936;49.010;12.120;2023-03-14T07:14:34;96128.19;;;10.80;100.00
17635;BME280;8936;49.010;12.120;2023-03-14T07:17:00;96119.31;;;10.63;100.00
17635;BME280;8936;49.010;12.120;2023-03-14T07:19:28;96131.56;;;10.64;100.00
17635;BME280;8936;49.010;12.120;2023-03-14T07:21:54;96130.53;;;10.73;100.00
17635;BME280;8936;49.010;12.120;2023-03-14T07:24:21;96128.28;;;10.67;100.00
17635;BME280;8936;49.010;12.120;2023-03-14T07:26:47;96139.75;;;10.67;100.00
17635;BME280;8936;49.010;12.120;2023-03-14T07:29:13;96140.84;;;10.66;100.00
17635;BME280;8936;49.010;12.120;2023-03-14T07:31:40;96148.91;;;10.83;100.00
17635;BME280;8936;49.010;12.120;2023-03-14T07:34:06;96148.88;;;10.75;100.00
17635;BME280;8936;49.010;12.120;2023-03-14T07:36:34;96158.28;;;10.72;100.00
17635;BME280;8936;49.010;12.120;2023-03-14T07:39:00;96164.81;;;10.89;100.00
17635;BME280;8936;49.010;12.120;2023-03-14T07:41:27;96159.06;;;10.95;100.00
17635;BME280;8936;49.010;12.120;2023-03-14T07:43:53;96156.50;;;10.90;100.00
17635;BME280;8936;49.010;12.120;2023-03-14T07:46:19;96168.22;;;10.80;100.00
17635;BME280;8936;49.010;12.120;2023-03-14T07:48:46;96173.22;;;10.73;100.00
17635;BME280;8936;49.010;12.120;2023-03-14T07:51:12;96171.72;;;10.59;100.00
17635;BME280;8936;49.010;12.120;2023-03-14T07:53:40;96181.50;;;10.63;100.00
17635;BME280;8936;49.010;12.120;2023-03-14T07:56:08;96179.91;;;10.62;100.00
17635;BME280;8936;49.010;12.120;2023-03-14T07:58:34;96179.53;;;10.55;100.00
17635;BME280;8936;49.010;12.120;2023-03-14T08:01:01;96183.53;;;10.66;100.00
17635;BME280;8936;49.010;12.120;2023-03-14T08:03:28;96196.34;;;10.78;100.00
17635;BME280;8936;49.010;12.120;2023-03-14T08:05:54;96191.41;;;10.71;100.00
17635;BME280;8936;49.010;12.120;2023-03-14T08:08:21;96192.41;;;10.75;100.00
17635;BME280;8936;49.010;12.120;2023-03-14T08:10:48;96193.28;;;10.71;100.00
17635;BME280;8936;49.010;12.120;2023-03-14T08:13:15;96183.22;;;10.68;100.00
17635;BME280;8936;49.010;12.120;2023-03-14T08:15:41;96178.81;;;10.63;100.00
17635;BME280;8936;49.010;12.120;2023-03-14T08:18:07;96169.88;;;10.68;100.00
17635;BME280;8936;49.010;12.120;2023-03-14T08:20:35;96169.28;;;10.71;100.00
17635;BME280;8936;49.010;12.120;2023-03-14T08:23:01;96166.66;;;10.79;100.00
17635;BME280;8936;49.010;12.120;2023-03-14T08:25:28;96170.59;;;10.82;100.00
17635;BME280;8936;49.010;12.120;2023-03-14T08:27:55;96172.13;;;10.74;100.00
17635;BME280;8936;49.010;12.120;2023-03-14T08:30:22;96172.13;;;10.74;100.00
17635;BME280;8936;49.010;12.120;2023-03-14T08:32:48;96158.06;;;10.60;100.00
17635;BME280;8936;49.010;12.120;2023-03-14T08:35:15;96162.66;;;10.68;100.00
17635;BME280;8936;49.010;12.120;2023-03-14T08:37:41;96160.00;;;10.68;100.00
17635;BME280;8936;49.010;12.120;2023-03-14T08:40:08;96155.81;;;10.76;100.00
17635;BME280;8936;49.010;12.120;2023-03-14T08:42:35;96152.41;;;10.93;100.00
17635;BME280;8936;49.010;12.120;2023-03-14T08:45:03;96151.25;;;10.76;100.00
17635;BME280;8936;49.010;12.120;2023-03-14T08:47:30;96145.75;;;10.73;100.00
17635;BME280;8936;49.010;12.120;2023-03-14T08:49:56;96142.63;;;10.79;100.00
17635;BME280;8936;49.010;12.120;2023-03-14T08:52:22;96136.28;;;10.67;100.00
17635;BME280;8936;49.010;12.120;2023-03-14T08:54:49;96140.59;;;10.76;100.00
17635;BME280;8936;49.010;12.120;2023-03-14T08:57:15;96141.88;;;10.88;100.00
17635;BME280;8936;49.010;12.120;2023-03-14T08:59:42;96132.28;;;10.87;100.00
17635;BME280;8936;49.010;12.120;2023-03-14T09:02:09;96139.06;;;10.93;100.00
17635;BME280;8936;49.010;12.120;2023-03-14T09:04:36;96138.75;;;10.86;100.00
17635;BME280;8936;49.010;12.120;2023-03-14T09:07:03;96135.09;;;10.81;100.00
17635;BME280;8936;49.010;12.120;2023-03-14T09:09:29;96133.41;;;10.86;100.00
17635;BME280;8936;49.010;12.120;2023-03-14T09:11:56;96136.53;;;10.88;100.00
17635;BME280;8936;49.010;12.120;2023-03-14T09:14:23;96138.44;;;10.96;100.00
17635;BME280;8936;49.010;12.120;2023-03-14T09:16:49;96141.09;;;10.87;100.00
17635;BME280;8936;49.010;12.120;2023-03-14T09:19:17;96132.00;;;10.88;100.00
17635;BME280;8936;49.010;12.120;2023-03-14T09:21:43;96132.47;;;10.90;100.00
17635;BME280;8936;49.010;12.120;2023-03-14T09:24:09;96133.44;;;10.94;100.00
17635;BME280;8936;49.010;12.120;2023-03-14T09:26:36;96138.44;;;10.96;100.00
17635;BME280;8936;49.010;12.120;2023-03-14T09:29:02;96143.50;;;10.97;100.00
17635;BME280;8936;49.010;12.120;2023-03-14T09:31:29;96143.19;;;10.99;100.00
17635;BME280;8936;49.010;12.120;2023-03-14T09:33:55;96152.66;;;11.05;100.00
17635;BME280;8936;49.010;12.120;2023-03-14T09:36:23;96159.25;;;11.07;100.00
17635;BME280;8936;49.010;12.120;2023-03-14T09:38:49;96163.94;;;11.02;100.00
17635;BME280;8936;49.010;12.120;2023-03-14T09:41:17;96150.28;;;11.03;100.00
17635;BME280;8936;49.010;12.120;2023-03-14T09:43:44;96150.47;;;11.07;100.00
17635;BME280;8936;49.010;12.120;2023-03-14T09:46:12;96137.88;;;11.07;100.00
17635;BME280;8936;49.010;12.120;2023-03-14T09:48:39;96137.44;;;11.14;100.00
17635;BME280;8936;49.010;12.120;2023-03-14T09:51:07;96143.09;;;11.21;100.00
17635;BME280;8936;49.010;12.120;2023-03-14T09:53:40;96142.50;;;11.24;100.00
17635;BME280;8936;49.010;12.120;2023-03-14T09:56:09;96131.97;;;11.27;100.00
17635;BME280;8936;49.010;12.120;2023-03-14T09:58:38;96138.25;;;11.23;100.00
17635;BME280;8936;49.010;12.120;2023-03-14T10:01:07;96137.31;;;11.27;100.00
17635;BME280;8936;49.010;12.120;2023-03-14T10:03:35;96130.25;;;11.31;100.00
17635;BME280;8936;49.010;12.120;2023-03-14T10:06:02;96122.53;;;11.30;100.00
17635;BME280;8936;49.010;12.120;2023-03-14T10:08:35;96113.63;;;11.34;100.00
17635;BME280;8936;49.010;12.120;2023-03-14T10:11:03;96117.19;;;11.30;100.00
17635;BME280;8936;49.010;12.120;2023-03-14T10:13:29;96113.44;;;11.39;100.00
17635;BME280;8936;49.010;12.120;2023-03-14T10:15:59;96104.34;;;11.49;100.00
17635;BME280;8936;49.010;12.120;2023-03-14T10:18:26;96102.47;;;11.50;100.00
17635;BME280;8936;49.010;12.120;2023-03-14T10:21:01;96105.31;;;11.53;100.00
17635;BME280;8936;49.010;12.120;2023-03-14T10:23:29;96099.34;;;11.65;100.00
17635;BME280;8936;49.010;12.120;2023-03-14T10:26:01;96096.03;;;11.68;100.00
17635;BME280;8936;49.010;12.120;2023-03-14T10:28:30;96087.13;;;11.81;100.00
17635;BME280;8936;49.010;12.120;2023-03-14T10:30:58;96082.09;;;11.97;100.00
17635;BME280;8936;49.010;12.120;2023-03-14T10:33:25;96084.44;;;12.07;100.00
17635;BME280;8936;49.010;12.120;2023-03-14T10:35:52;96080.94;;;12.23;100.00
17635;BME280;8936;49.010;12.120;2023-03-14T10:38:20;96075.88;;;12.39;100.00
17635;BME280;8936;49.010;12.120;2023-03-14T10:40:49;96079.78;;;12.59;100.00
17635;BME280;8936;49.010;12.120;2023-03-14T10:43:19;96080.47;;;12.30;100.00
17635;BME280;8936;49.010;12.120;2023-03-14T10:45:52;96075.44;;;12.37;100.00
17635;BME280;8936;49.010;12.120;2023-03-14T10:48:23;96082.22;;;12.34;100.00
17635;BME280;8936;49.010;12.120;2023-03-14T10:50:54;96072.25;;;12.35;100.00
17635;BME280;8936;49.010;12.120;2023-03-14T10:53:21;96077.63;;;12.35;100.00
17635;BME280;8936;49.010;12.120;2023-03-14T10:55:48;96081.91;;;12.27;100.00
17635;BME280;8936;49.010;12.120;2023-03-14T10:58:24;96080.78;;;12.37;100.00
17635;BME280;8936;49.010;12.120;2023-03-14T11:00:57;96082.06;;;12.31;100.00
17635;BME280;8936;49.010;12.120;2023-03-14T11:03:26;96090.53;;;12.33;100.00
17635;BME280;8936;49.010;12.120;2023-03-14T11:05:56;96081.09;;;12.27;100.00
17635;BME280;8936;49.010;12.120;2023-03-14T11:08:24;96088.03;;;12.28;100.00
17635;BME280;8936;49.010;12.120;2023-03-14T11:10:51;96091.50;;;12.37;100.00
17635;BME280;8936;49.010;12.120;2023-03-14T11:13:21;96076.38;;;12.24;100.00
17635;BME280;8936;49.010;12.120;2023-03-14T11:15:53;96076.06;;;12.17;100.00
17635;BME280;8936;49.010;12.120;2023-03-14T11:21:11;96089.78;;;12.15;100.00
17635;BME280;8936;49.010;12.120;2023-03-14T11:23:41;96088.19;;;12.23;100.00
17635;BME280;8936;49.010;12.120;2023-03-14T11:26:15;96097.16;;;12.27;100.00
17635;BME280;8936;49.010;12.120;2023-03-14T11:28:45;96081.09;;;12.27;100.00
17635;BME280;8936;49.010;12.120;2023-03-14T11:31:16;96085.69;;;12.18;100.00
17635;BME280;8936;49.010;12.120;2023-03-14T11:33:46;96088.66;;;12.16;100.00
17635;BME280;8936;49.010;12.120;2023-03-14T11:36:15;96082.06;;;12.14;100.00
17635;BME280;8936;49.010;12.120;2023-03-14T11:38:46;96077.66;;;12.18;100.00
17635;BME280;8936;49.010;12.120;2023-03-14T11:41:14;96088.38;;;12.18;100.00
17635;BME280;8936;49.010;12.120;2023-03-14T11:43:42;96074.97;;;12.18;100.00
17635;BME280;8936;49.010;12.120;2023-03-14T11:46:14;96069.94;;;12.16;100.00
17635;BME280;8936;49.010;12.120;2023-03-14T11:48:43;96069.94;;;12.16;100.00
17635;BME280;8936;49.010;12.120;2023-03-14T11:51:15;96076.53;;;12.27;100.00
17635;BME280;8936;49.010;12.120;2023-03-14T11:53:47;96061.91;;;12.25;100.00
17635;BME280;8936;49.010;12.120;2023-03-14T11:56:16;96057.47;;;12.29;100.00
17635;BME280;8936;49.010;12.120;2023-03-14T11:58:46;96054.03;;;12.28;100.00
17635;BME280;8936;49.010;12.120;2023-03-14T12:01:14;96050.56;;;12.28;100.00
17635;BME280;8936;49.010;12.120;2023-03-14T12:03:46;96051.47;;;12.32;100.00
17635;BME280;8936;49.010;12.120;2023-03-14T12:06:19;96048.81;;;12.40;100.00
17635;BME280;8936;49.010;12.120;2023-03-14T12:08:49;96050.06;;;12.43;100.00
17635;BME280;8936;49.010;12.120;2023-03-14T12:11:18;96041.53;;;12.50;100.00
17635;BME280;8936;49.010;12.120;2023-03-14T12:13:46;96041.97;;;12.60;100.00
17635;BME280;8936;49.010;12.120;2023-03-14T12:16:20;96034.88;;;12.64;100.00
17635;BME280;8936;49.010;12.120;2023-03-14T12:18:50;96028.72;;;12.64;100.00
17635;BME280;8936;49.010;12.120;2023-03-14T12:21:18;96015.63;;;12.71;100.00
17635;BME280;8936;49.010;12.120;2023-03-14T12:23:47;96023.22;;;12.60;100.00
17635;BME280;8936;49.010;12.120;2023-03-14T12:26:16;96016.56;;;12.66;100.00
17635;BME280;8936;49.010;12.120;2023-03-14T12:28:43;96024.94;;;12.65;100.00
17635;BME280;8936;49.010;12.120;2023-03-14T12:34:00;96010.00;;;12.55;100.00
17635;BME280;8936;49.010;12.120;2023-03-14T12:42:12;96003.22;;;12.58;100.00
17635;BME280;8936;49.010;12.120;2023-03-14T12:44:43;95999.75;;;12.57;100.00
17635;BME280;8936;49.010;12.120;2023-03-14T12:50:07;96001.94;;;12.64;100.00
17635;BME280;8936;49.010;12.120;2023-03-14T12:52:35;96005.41;;;12.64;100.00
17635;BME280;8936;49.010;12.120;2023-03-14T12:55:03;96006.69;;;12.58;100.00
17635;BME280;8936;49.010;12.120;2023-03-14T12:57:36;96001.00;;;12.68;100.00
17635;BME280;8936;49.010;12.120;2023-03-14T13:00:16;95993.59;;;12.65;100.00
17635;BME280;8936;49.010;12.120;2023-03-14T13:02:44;95989.72;;;12.83;100.00
17635;BME280;8936;49.010;12.120;2023-03-14T13:05:11;95988.78;;;12.79;100.00